Normed Bremen — 9HPG8 — position and weather

sailwx.info

Track history (hours):
 
Tides and Currents Weather Stations Pressure Air Temp Water Temp Dewpoint Dewpoint Depression Visibility Wind Speed Wind Dir Waves Ship Positions

Normed Bremen

Last reported at 2014-Jul-31 08:33 UTC. Time now 2014-Jul-31 09:31 UTC.
Position N 37°01' E 002°58'.

Type: Cargo ship. MMSI: 256240000.

Date/timePositionNaut miles runAvg speedWind from/ knotsBaromVisibWave heightAir tempDewpointWater temp
2014-Jul-31 08:33N 37°01' E 002°58'1313.1
2014-Jul-31 07:33N 36°59' E 002°42'1312.9
2014-Jul-31 06:33N 36°57' E 002°26'1312.6
2014-Jul-31 05:33N 36°55' E 002°10'1312.7
2014-Jul-31 04:33N 36°53' E 001°54'1413.2
2014-Jul-31 03:31N 36°51' E 001°38'1213.0
2014-Jul-31 02:33N 36°49' E 001°22'1313.0
2014-Jul-31 01:33N 36°47' E 001°06'1413.0
2014-Jul-31 00:28N 36°45' E 000°48'1212.8
2014-Jul-30 23:32N 36°43' E 000°34'1312.7
2014-Jul-30 22:33N 36°41' E 000°19'1313.0
2014-Jul-30 21:32N 36°39' E 000°02'1313.8
2014-Jul-30 20:33N 36°36' W 000°14'1413.5
2014-Jul-30 19:33N 36°35' W 000°31'1313.2
2014-Jul-30 18:33N 36°33' W 000°47'1413.3
2014-Jul-30 17:32N 36°31' W 001°04'1313.1
2014-Jul-30 16:31N 36°28' W 001°20'1312.9
2014-Jul-30 15:33N 36°27' W 001°35'1313.0
2014-Jul-30 14:33N 36°25' W 001°51'16912.9
2014-Jul-30 01:24N 35°56' W 005°18'2 2.4
2014-Jul-30 00:33N 35°54' W 005°20'0 0.1
2014-Jul-29 23:32N 35°55' W 005°20'0 0.0
2014-Jul-29 22:32N 35°54' W 005°20'0 0.0
2014-Jul-29 21:32N 35°54' W 005°20'0 0.1
2014-Jul-29 20:31N 35°54' W 005°20'0 0.0
2014-Jul-29 19:28N 35°54' W 005°20'0 0.0
2014-Jul-29 18:30N 35°54' W 005°20'0 0.0
2014-Jul-29 17:33N 35°54' W 005°20'0 0.0
2014-Jul-29 16:32N 35°54' W 005°20'0 0.0
2014-Jul-29 15:32N 35°54' W 005°20'2 2.5
2014-Jul-29 14:33N 35°56' W 005°18'  
2014-Jul-27 06:05N 36°00' W 005°18'813.9
2014-Jul-27 05:30N 35°58' W 005°28'4213.4
2014-Jul-27 02:21N 35°55' W 006°20'5712.0
2014-Jul-26 21:33N 36°10' W 007°29'1211.9
2014-Jul-26 20:33N 36°13' W 007°43'3612.1
2014-Jul-26 17:33N 36°22' W 008°27'1312.5
2014-Jul-26 16:33N 36°25' W 008°42'1212.5
2014-Jul-26 15:33N 36°29' W 008°57'1512.5
2014-Jul-26 14:22N 36°32' W 009°15'1212.4
2014-Jul-26 13:25N 36°41' W 009°25'2612.2
2014-Jul-26 11:17N 37°05' W 009°38'3712.7
2014-Jul-26 08:24N 37°40' W 009°48'1112.6
2014-Jul-26 07:32N 37°51' W 009°51'1212.4
2014-Jul-26 06:33N 38°03' W 009°55'1312.4
2014-Jul-26 05:33N 38°15' W 009°59'1412.5
2014-Jul-26 04:26N 38°28' W 010°03'1512.3
2014-Jul-26 03:12N 38°44' W 010°06'812.6
2014-Jul-26 02:33N 38°52' W 010°06'1312.5
2014-Jul-26 01:29N 39°05' W 010°06'1212.2
2014-Jul-26 00:32N 39°17' W 010°05'  
Track history (hours):
 
Tides and Currents Weather Stations Pressure Air Temp Water Temp Dewpoint Dewpoint Depression Visibility Wind Speed Wind Dir Waves Ship Positions

Normed Bremen

Last reported at 2014-Jul-31 08:33 UTC. Time now 2014-Jul-31 09:31 UTC.
Position N 37°01' E 002°58'.

Type: Cargo ship. MMSI: 256240000.

Date/timePositionNaut miles runAvg speedWind from/ knotsBaromVisibWave heightAir tempDewpointWater temp
2014-Jul-31 08:33N 37°01' E 002°58'1313.1
2014-Jul-31 07:33N 36°59' E 002°42'1312.9
2014-Jul-31 06:33N 36°57' E 002°26'1312.6
2014-Jul-31 05:33N 36°55' E 002°10'1312.7
2014-Jul-31 04:33N 36°53' E 001°54'1413.2
2014-Jul-31 03:31N 36°51' E 001°38'1213.0
2014-Jul-31 02:33N 36°49' E 001°22'1313.0
2014-Jul-31 01:33N 36°47' E 001°06'1413.0
2014-Jul-31 00:28N 36°45' E 000°48'1212.8
2014-Jul-30 23:32N 36°43' E 000°34'1312.7
2014-Jul-30 22:33N 36°41' E 000°19'1313.0
2014-Jul-30 21:32N 36°39' E 000°02'1313.8
2014-Jul-30 20:33N 36°36' W 000°14'1413.5
2014-Jul-30 19:33N 36°35' W 000°31'1313.2
2014-Jul-30 18:33N 36°33' W 000°47'1413.3
2014-Jul-30 17:32N 36°31' W 001°04'1313.1
2014-Jul-30 16:31N 36°28' W 001°20'1312.9
2014-Jul-30 15:33N 36°27' W 001°35'1313.0
2014-Jul-30 14:33N 36°25' W 001°51'16912.9
2014-Jul-30 01:24N 35°56' W 005°18'2 2.4
2014-Jul-30 00:33N 35°54' W 005°20'0 0.1
2014-Jul-29 23:32N 35°55' W 005°20'0 0.0
2014-Jul-29 22:32N 35°54' W 005°20'0 0.0
2014-Jul-29 21:32N 35°54' W 005°20'0 0.1
2014-Jul-29 20:31N 35°54' W 005°20'0 0.0
2014-Jul-29 19:28N 35°54' W 005°20'0 0.0
2014-Jul-29 18:30N 35°54' W 005°20'0 0.0
2014-Jul-29 17:33N 35°54' W 005°20'0 0.0
2014-Jul-29 16:32N 35°54' W 005°20'0 0.0
2014-Jul-29 15:32N 35°54' W 005°20'2 2.5
2014-Jul-29 14:33N 35°56' W 005°18'  
2014-Jul-27 06:05N 36°00' W 005°18'813.9
2014-Jul-27 05:30N 35°58' W 005°28'4213.4
2014-Jul-27 02:21N 35°55' W 006°20'5712.0
2014-Jul-26 21:33N 36°10' W 007°29'1211.9
2014-Jul-26 20:33N 36°13' W 007°43'3612.1
2014-Jul-26 17:33N 36°22' W 008°27'1312.5
2014-Jul-26 16:33N 36°25' W 008°42'1212.5
2014-Jul-26 15:33N 36°29' W 008°57'1512.5
2014-Jul-26 14:22N 36°32' W 009°15'1212.4
2014-Jul-26 13:25N 36°41' W 009°25'2612.2
2014-Jul-26 11:17N 37°05' W 009°38'3712.7
2014-Jul-26 08:24N 37°40' W 009°48'1112.6
2014-Jul-26 07:32N 37°51' W 009°51'1212.4
2014-Jul-26 06:33N 38°03' W 009°55'1312.4
2014-Jul-26 05:33N 38°15' W 009°59'1412.5
2014-Jul-26 04:26N 38°28' W 010°03'1512.3
2014-Jul-26 03:12N 38°44' W 010°06'812.6
2014-Jul-26 02:33N 38°52' W 010°06'1312.5
2014-Jul-26 01:29N 39°05' W 010°06'1212.2
2014-Jul-26 00:32N 39°17' W 010°05'  

Dump ship's entire track history